createdAt,value
2019-06-26T00:01:10.444Z,26.00
2019-06-26T00:03:59.289Z,26.00
2019-06-26T00:06:47.426Z,26.00
2019-06-26T00:09:35.098Z,25.90
2019-06-26T00:12:23.266Z,25.90
2019-06-26T00:15:12.588Z,26.00
2019-06-26T00:18:01.108Z,25.90
2019-06-26T00:20:49.195Z,25.90
2019-06-26T00:23:38.062Z,25.80
2019-06-26T00:26:26.274Z,25.80
2019-06-26T00:29:14.513Z,25.70
2019-06-26T00:32:02.873Z,25.80
2019-06-26T00:34:51.494Z,25.70
2019-06-26T00:37:39.585Z,25.70
2019-06-26T00:40:28.089Z,25.70
2019-06-26T00:43:17.062Z,25.70
2019-06-26T00:46:05.607Z,25.60
2019-06-26T00:48:53.941Z,25.60
2019-06-26T00:51:41.942Z,25.60
2019-06-26T00:54:30.901Z,25.60
2019-06-26T00:57:20.098Z,25.50
2019-06-26T01:00:09.894Z,25.40
2019-06-26T01:02:58.808Z,25.40
2019-06-26T01:05:47.133Z,25.40
2019-06-26T01:08:34.883Z,25.40
2019-06-26T01:11:22.502Z,25.40
2019-06-26T01:14:11.025Z,25.40
2019-06-26T01:16:59.636Z,25.40
2019-06-26T01:19:47.634Z,25.30
2019-06-26T01:22:36.518Z,25.30
2019-06-26T01:25:24.298Z,25.30
2019-06-26T01:28:12.634Z,25.20
2019-06-26T01:31:00.514Z,25.20
2019-06-26T01:33:48.985Z,25.10
2019-06-26T01:36:37.433Z,25.10
2019-06-26T01:39:25.189Z,25.10
2019-06-26T01:42:14.158Z,25.00
2019-06-26T01:45:02.860Z,25.00
2019-06-26T01:47:51.111Z,25.00
2019-06-26T01:50:40.258Z,25.00
2019-06-26T01:53:28.898Z,25.00
2019-06-26T01:56:17.593Z,25.00
2019-06-26T01:59:06.678Z,25.00
2019-06-26T02:01:55.271Z,24.90
2019-06-26T02:04:43.384Z,25.00
2019-06-26T02:07:31.413Z,25.00
2019-06-26T02:10:19.742Z,25.00
2019-06-26T02:13:08.824Z,24.90
2019-06-26T02:15:56.610Z,24.90
2019-06-26T02:18:49.972Z,24.90
2019-06-26T02:21:37.783Z,24.90
2019-06-26T02:24:26.674Z,24.80
2019-06-26T02:27:14.345Z,24.80
2019-06-26T02:30:02.924Z,24.80
2019-06-26T02:32:51.673Z,24.80
2019-06-26T02:35:40.028Z,24.80
2019-06-26T02:38:28.282Z,24.70
2019-06-26T02:41:17.168Z,24.60
2019-06-26T02:44:05.277Z,24.60
2019-06-26T02:46:53.135Z,24.60
2019-06-26T02:49:40.752Z,24.50
2019-06-26T02:52:28.768Z,24.50
2019-06-26T02:55:17.329Z,24.50
2019-06-26T02:58:06.102Z,24.50
2019-06-26T03:00:53.905Z,24.50
2019-06-26T03:03:42.619Z,24.60
2019-06-26T03:06:30.975Z,24.50
2019-06-26T03:09:19.302Z,24.60
2019-06-26T03:12:07.459Z,24.60
2019-06-26T03:15:08.246Z,24.50
2019-06-26T03:17:55.488Z,24.50
2019-06-26T03:20:39.986Z,24.40
2019-06-26T03:23:28.895Z,24.40
2019-06-26T03:26:17.381Z,24.30
2019-06-26T03:29:05.570Z,24.30
2019-06-26T03:31:54.529Z,24.20
2019-06-26T03:34:43.088Z,24.10
2019-06-26T03:37:32.534Z,24.10
2019-06-26T03:40:20.712Z,24.10
2019-06-26T03:43:08.773Z,24.10
2019-06-26T03:45:57.320Z,24.10
2019-06-26T03:48:46.024Z,24.10
2019-06-26T03:51:34.439Z,24.10
2019-06-26T03:54:22.278Z,24.10
2019-06-26T03:57:11.331Z,24.10
2019-06-26T03:59:59.942Z,24.20
2019-06-26T04:02:48.086Z,24.20
2019-06-26T04:05:36.335Z,24.20
2019-06-26T04:08:25.133Z,24.30
2019-06-26T04:11:13.635Z,24.30
2019-06-26T04:14:01.781Z,24.30
2019-06-26T04:16:49.833Z,24.30
2019-06-26T04:19:38.184Z,24.40
2019-06-26T04:22:26.789Z,24.50
2019-06-26T04:25:14.922Z,24.50
2019-06-26T04:28:06.278Z,24.60
2019-06-26T04:30:52.821Z,24.70
2019-06-26T04:33:41.382Z,24.80
2019-06-26T04:36:29.999Z,24.90
2019-06-26T04:39:18.450Z,25.00
2019-06-26T04:42:06.682Z,24.90
2019-06-26T04:44:55.118Z,25.00
2019-06-26T04:47:43.425Z,25.10
2019-06-26T04:50:31.695Z,25.10
2019-06-26T04:53:20.304Z,25.30
2019-06-26T04:56:09.358Z,25.20
2019-06-26T04:58:57.209Z,25.20
2019-06-26T05:01:45.398Z,25.30
2019-06-26T05:04:33.218Z,25.30
2019-06-26T05:07:21.158Z,25.40
2019-06-26T05:10:09.849Z,25.30
2019-06-26T05:12:57.881Z,25.30
2019-06-26T05:15:46.723Z,25.40
2019-06-26T05:18:35.214Z,25.50
2019-06-26T05:21:24.330Z,25.60
2019-06-26T05:24:13.249Z,25.70
2019-06-26T05:27:01.561Z,25.80
2019-06-26T05:29:50.153Z,25.70
2019-06-26T05:32:38.529Z,25.70
2019-06-26T05:35:27.053Z,25.70
2019-06-26T05:38:16.052Z,25.70
2019-06-26T05:41:04.973Z,25.70
2019-06-26T05:43:53.054Z,25.80
2019-06-26T05:46:40.725Z,25.80
2019-06-26T05:49:28.679Z,26.00
2019-06-26T05:52:17.417Z,26.00
2019-06-26T05:55:06.601Z,26.00
2019-06-26T05:57:54.983Z,26.10
2019-06-26T06:00:42.995Z,26.10
2019-06-26T06:03:31.173Z,26.10
2019-06-26T06:06:20.447Z,26.20
2019-06-26T06:09:08.798Z,26.20
2019-06-26T06:11:56.895Z,26.40
2019-06-26T06:14:45.817Z,26.30
2019-06-26T06:17:34.151Z,26.40
2019-06-26T06:20:30.047Z,26.50
2019-06-26T06:23:18.353Z,26.50
2019-06-26T06:26:06.701Z,26.50
2019-06-26T06:28:55.153Z,26.50
2019-06-26T06:31:43.110Z,26.60
2019-06-26T06:34:31.670Z,26.60
2019-06-26T06:37:20.208Z,26.60
2019-06-26T06:40:08.642Z,26.60
2019-06-26T06:42:57.013Z,26.70
2019-06-26T06:45:44.962Z,26.80
2019-06-26T06:48:33.158Z,26.80
2019-06-26T06:51:21.472Z,26.90
2019-06-26T06:54:09.598Z,27.00
2019-06-26T06:56:58.262Z,27.00
2019-06-26T06:59:46.268Z,27.10
2019-06-26T07:02:34.661Z,27.10
2019-06-26T07:05:23.318Z,27.10
2019-06-26T07:08:12.366Z,27.20
2019-06-26T07:11:01.125Z,27.20
2019-06-26T07:13:49.197Z,27.20
2019-06-26T07:16:37.621Z,27.30
2019-06-26T07:19:26.151Z,27.40
2019-06-26T07:22:14.821Z,27.50
2019-06-26T07:25:03.264Z,27.40
2019-06-26T07:27:52.495Z,27.50
2019-06-26T07:30:41.089Z,27.60
2019-06-26T07:33:29.522Z,27.80
2019-06-26T07:36:18.421Z,28.10
2019-06-26T07:39:07.250Z,27.90
2019-06-26T07:41:56.425Z,28.00
2019-06-26T07:44:44.519Z,28.10
2019-06-26T07:47:43.344Z,28.20
2019-06-26T07:50:22.709Z,28.50
2019-06-26T07:53:11.010Z,29.20
2019-06-26T07:55:59.966Z,30.00
2019-06-26T07:58:48.706Z,30.60
2019-06-26T08:01:36.999Z,31.10
2019-06-26T08:04:25.937Z,32.10
2019-06-26T08:07:14.866Z,32.40
2019-06-26T08:10:03.083Z,33.00
2019-06-26T08:12:51.998Z,33.10
2019-06-26T08:15:40.522Z,33.70
2019-06-26T08:18:28.818Z,33.70
2019-06-26T08:21:17.293Z,33.70
2019-06-26T08:24:06.157Z,33.40
2019-06-26T08:26:54.934Z,34.20
2019-06-26T08:29:42.953Z,34.60
2019-06-26T08:32:30.857Z,34.40
2019-06-26T08:35:19.408Z,34.60
2019-06-26T08:38:11.368Z,34.60
2019-06-26T08:40:57.138Z,35.00
2019-06-26T08:43:45.628Z,35.00
2019-06-26T08:46:34.750Z,35.20
2019-06-26T08:49:26.004Z,35.60
2019-06-26T08:52:14.042Z,36.20
2019-06-26T08:55:02.286Z,35.90
2019-06-26T08:57:51.164Z,35.80
2019-06-26T09:00:39.612Z,36.40
2019-06-26T09:03:27.519Z,36.10
2019-06-26T09:06:16.254Z,35.30
2019-06-26T09:09:07.013Z,34.90
2019-06-26T09:11:55.641Z,35.90
2019-06-26T09:14:44.322Z,35.90
2019-06-26T09:17:32.614Z,35.60
2019-06-26T09:20:28.494Z,36.20
2019-06-26T09:23:16.933Z,36.40
2019-06-26T09:26:05.008Z,36.70
2019-06-26T09:28:53.922Z,36.70
2019-06-26T09:31:42.519Z,37.00
2019-06-26T09:34:30.819Z,37.10
2019-06-26T09:37:18.959Z,36.20
2019-06-26T09:40:07.795Z,36.60
2019-06-26T09:42:56.250Z,36.10
2019-06-26T09:45:44.149Z,35.90
2019-06-26T09:48:31.969Z,36.70
2019-06-26T09:51:19.820Z,36.90
2019-06-26T09:54:08.211Z,37.30
2019-06-26T09:56:56.443Z,36.90
2019-06-26T09:59:44.926Z,37.50
2019-06-26T10:02:33.725Z,37.50
2019-06-26T10:05:22.099Z,37.30
2019-06-26T10:08:10.181Z,37.20
2019-06-26T10:10:58.258Z,37.30
2019-06-26T10:13:46.400Z,37.10
2019-06-26T10:16:35.541Z,37.20
2019-06-26T10:19:23.686Z,36.70
2019-06-26T10:22:11.572Z,36.40
2019-06-26T10:24:59.765Z,37.10
2019-06-26T10:27:48.073Z,38.30
2019-06-26T10:30:36.333Z,38.60
2019-06-26T10:33:24.884Z,38.10
2019-06-26T10:36:13.648Z,37.80
2019-06-26T10:39:02.103Z,38.10
2019-06-26T10:41:54.580Z,38.00
2019-06-26T10:44:39.965Z,38.10
2019-06-26T10:47:28.530Z,38.00
2019-06-26T10:50:17.310Z,38.30
2019-06-26T10:53:05.224Z,38.50
2019-06-26T10:55:53.348Z,38.80
2019-06-26T10:58:41.398Z,38.80
2019-06-26T11:01:30.066Z,38.90
2019-06-26T11:04:18.678Z,38.10
2019-06-26T11:07:07.046Z,38.40
2019-06-26T11:09:55.434Z,38.20
2019-06-26T11:12:43.592Z,38.80
2019-06-26T11:15:32.403Z,39.10
2019-06-26T11:18:20.578Z,38.50
2019-06-26T11:21:09.151Z,38.10
2019-06-26T11:23:57.598Z,37.90
2019-06-26T11:26:46.466Z,38.10
2019-06-26T11:29:35.022Z,38.10
2019-06-26T11:32:23.354Z,39.00
2019-06-26T11:35:11.156Z,39.10
2019-06-26T11:37:59.106Z,38.80
2019-06-26T11:40:47.159Z,39.40
2019-06-26T11:43:36.209Z,39.80
2019-06-26T11:46:24.324Z,39.20
2019-06-26T11:49:12.430Z,39.50
2019-06-26T11:52:00.898Z,39.50
2019-06-26T11:55:02.143Z,39.40
2019-06-26T11:57:39.977Z,39.40
2019-06-26T12:00:28.900Z,38.70
2019-06-26T12:03:17.329Z,38.80
2019-06-26T12:06:17.882Z,39.30
2019-06-26T12:08:55.725Z,39.60
2019-06-26T12:11:44.170Z,39.80
2019-06-26T12:14:32.503Z,39.00
2019-06-26T12:17:20.965Z,39.40
2019-06-26T12:20:18.518Z,38.70
2019-06-26T12:22:58.967Z,39.20
2019-06-26T12:25:48.101Z,39.40
2019-06-26T12:28:36.336Z,38.90
2019-06-26T12:31:24.751Z,39.40
2019-06-26T12:34:12.813Z,38.90
2019-06-26T12:37:00.650Z,38.50
2019-06-26T12:39:48.962Z,38.60
2019-06-26T12:42:38.263Z,38.90
2019-06-26T12:45:26.237Z,38.90
2019-06-26T12:48:16.317Z,39.40
2019-06-26T12:51:05.841Z,39.10
2019-06-26T12:53:58.316Z,39.00
2019-06-26T12:56:44.906Z,39.40
2019-06-26T12:59:33.307Z,40.00
2019-06-26T13:02:21.585Z,39.40
2019-06-26T13:05:11.758Z,38.60
2019-06-26T13:08:00.762Z,38.50
2019-06-26T13:10:50.560Z,39.10
2019-06-26T13:13:38.948Z,38.70
2019-06-26T13:16:27.641Z,39.20
2019-06-26T13:19:16.666Z,39.40
2019-06-26T13:22:05.233Z,38.70
2019-06-26T13:24:53.755Z,37.80
2019-06-26T13:27:42.531Z,37.40
2019-06-26T13:30:37.859Z,38.10
2019-06-26T13:33:26.209Z,37.90
2019-06-26T13:36:14.311Z,37.60
2019-06-26T13:39:03.318Z,37.70
2019-06-26T13:41:51.979Z,38.60
2019-06-26T13:44:39.890Z,38.10
2019-06-26T13:47:27.851Z,38.30
2019-06-26T13:50:16.934Z,37.90
2019-06-26T13:53:05.812Z,37.10
2019-06-26T13:55:54.858Z,38.10
2019-06-26T13:58:44.052Z,38.60
2019-06-26T14:01:32.861Z,38.70
2019-06-26T14:04:21.170Z,38.70
2019-06-26T14:07:09.537Z,38.50
2019-06-26T14:09:58.165Z,38.30
2019-06-26T14:12:46.650Z,37.90
2019-06-26T14:15:35.209Z,38.20
2019-06-26T14:18:23.685Z,38.00
2019-06-26T14:21:24.584Z,37.90
2019-06-26T14:24:01.390Z,38.40
2019-06-26T14:26:49.256Z,38.40
2019-06-26T14:29:37.362Z,37.70
2019-06-26T14:32:25.586Z,38.30
2019-06-26T14:35:14.327Z,38.20
2019-06-26T14:38:03.079Z,38.30
2019-06-26T14:40:51.407Z,37.90
2019-06-26T14:43:39.787Z,37.60
2019-06-26T14:46:28.297Z,37.50
2019-06-26T14:49:16.962Z,36.70
2019-06-26T14:52:05.110Z,36.90
2019-06-26T14:54:53.193Z,37.40
2019-06-26T14:57:41.723Z,37.00
2019-06-26T15:00:29.763Z,36.30
2019-06-26T15:03:17.963Z,35.50
2019-06-26T15:06:16.217Z,36.10
2019-06-26T15:08:56.549Z,35.30
2019-06-26T15:11:45.502Z,35.20
2019-06-26T15:14:33.641Z,34.90
2019-06-26T15:17:21.450Z,35.60
2019-06-26T15:20:09.750Z,36.10
2019-06-26T15:22:58.945Z,36.40
2019-06-26T15:25:47.526Z,36.30
2019-06-26T15:28:35.874Z,36.60
2019-06-26T15:31:23.650Z,36.40
2019-06-26T15:34:12.012Z,36.40
2019-06-26T15:37:00.429Z,35.80
2019-06-26T15:39:49.624Z,35.40
2019-06-26T15:42:37.939Z,35.40
2019-06-26T15:45:26.038Z,35.40
2019-06-26T15:48:14.254Z,35.10
2019-06-26T15:51:02.746Z,34.80
2019-06-26T15:53:51.042Z,34.30
2019-06-26T15:56:39.535Z,34.00
2019-06-26T15:59:30.997Z,33.80
2019-06-26T16:02:18.154Z,33.80
2019-06-26T16:05:06.422Z,33.60
2019-06-26T16:07:54.727Z,33.40
2019-06-26T16:10:43.545Z,33.30
2019-06-26T16:13:31.745Z,33.00
2019-06-26T16:16:20.702Z,32.50
2019-06-26T16:19:12.902Z,32.40
2019-06-26T16:22:00.971Z,32.40
2019-06-26T16:24:48.638Z,32.10
2019-06-26T16:27:36.714Z,32.20
2019-06-26T16:30:24.579Z,32.10
2019-06-26T16:33:13.158Z,31.70
2019-06-26T16:36:01.548Z,31.30
2019-06-26T16:38:49.852Z,31.10
2019-06-26T16:41:38.069Z,30.70
2019-06-26T16:44:26.481Z,30.60
2019-06-26T16:47:14.633Z,30.60
2019-06-26T16:50:03.850Z,30.40
2019-06-26T16:52:52.262Z,30.40
2019-06-26T16:55:40.256Z,30.40
2019-06-26T16:58:31.990Z,30.30
2019-06-26T17:01:20.245Z,30.20
2019-06-26T17:04:08.630Z,30.10
2019-06-26T17:06:57.454Z,30.00
2019-06-26T17:09:46.106Z,29.80
2019-06-26T17:12:35.073Z,29.70
2019-06-26T17:15:24.057Z,29.50
2019-06-26T17:18:12.430Z,29.30
2019-06-26T17:21:00.441Z,29.20
2019-06-26T17:23:48.840Z,29.00
2019-06-26T17:26:37.382Z,28.70
2019-06-26T17:29:25.776Z,28.50
2019-06-26T17:32:13.590Z,28.50
2019-06-26T17:35:02.254Z,28.30
2019-06-26T17:37:50.670Z,28.10
2019-06-26T17:40:39.254Z,28.00
2019-06-26T17:43:27.910Z,28.00
2019-06-26T17:46:15.990Z,27.90
2019-06-26T17:49:04.645Z,27.80
2019-06-26T17:51:52.878Z,27.70
2019-06-26T17:54:40.960Z,27.80
2019-06-26T17:57:28.875Z,27.70
2019-06-26T18:00:18.959Z,27.70
2019-06-26T18:03:07.454Z,27.80
2019-06-26T18:05:55.863Z,27.60
2019-06-26T18:08:44.434Z,27.40
2019-06-26T18:11:32.725Z,27.40
2019-06-26T18:14:21.125Z,27.40
2019-06-26T18:17:21.694Z,27.40
2019-06-26T18:19:59.842Z,27.10
2019-06-26T18:22:48.307Z,27.10
2019-06-26T18:25:36.505Z,27.00
2019-06-26T18:28:24.518Z,26.90
2019-06-26T18:31:12.752Z,26.90
2019-06-26T18:34:01.082Z,26.80
2019-06-26T18:36:49.466Z,26.80
2019-06-26T18:39:37.105Z,26.60
2019-06-26T18:42:25.297Z,26.50
2019-06-26T18:45:14.833Z,26.50
2019-06-26T18:48:03.182Z,26.30
2019-06-26T18:50:51.017Z,26.20
2019-06-26T18:53:52.653Z,26.30
2019-06-26T18:56:29.733Z,26.20
2019-06-26T18:59:18.396Z,26.10
2019-06-26T19:02:06.461Z,26.10
2019-06-26T19:04:54.670Z,26.00
2019-06-26T19:07:43.014Z,25.90
2019-06-26T19:10:31.658Z,25.80
2019-06-26T19:13:20.568Z,25.80
2019-06-26T19:16:09.414Z,25.60
2019-06-26T19:18:56.973Z,25.40
2019-06-26T19:21:45.203Z,25.30
2019-06-26T19:24:34.361Z,25.30
2019-06-26T19:27:22.599Z,25.30
2019-06-26T19:30:11.711Z,25.20
2019-06-26T19:33:00.353Z,25.20
2019-06-26T19:35:48.785Z,25.20
2019-06-26T19:38:37.012Z,25.10
2019-06-26T19:41:25.125Z,25.00
2019-06-26T19:44:13.596Z,24.90
2019-06-26T19:47:01.779Z,24.80
2019-06-26T19:49:49.975Z,24.70
2019-06-26T19:52:38.086Z,24.60
2019-06-26T19:55:26.387Z,24.50
2019-06-26T19:58:15.144Z,24.40
2019-06-26T20:01:03.898Z,24.40
2019-06-26T20:03:51.709Z,24.30
2019-06-26T20:06:39.398Z,24.20
2019-06-26T20:09:27.491Z,24.10
2019-06-26T20:12:15.237Z,24.00
2019-06-26T20:15:03.706Z,24.00
2019-06-26T20:17:51.744Z,23.90
2019-06-26T20:20:40.022Z,23.80
2019-06-26T20:23:27.862Z,23.80
2019-06-26T20:26:16.121Z,23.70
2019-06-26T20:29:04.588Z,23.60
2019-06-26T20:31:53.070Z,23.60
2019-06-26T20:34:41.561Z,23.50
2019-06-26T20:37:30.257Z,23.40
2019-06-26T20:40:18.636Z,23.40
2019-06-26T20:43:07.296Z,23.30
2019-06-26T20:45:55.463Z,23.20
2019-06-26T20:48:44.245Z,23.20
2019-06-26T20:51:32.577Z,23.10
2019-06-26T20:54:20.405Z,23.00
2019-06-26T20:57:08.974Z,22.90
2019-06-26T20:59:57.374Z,22.90
2019-06-26T21:02:46.129Z,22.80
2019-06-26T21:05:34.380Z,22.70
2019-06-26T21:08:22.633Z,22.60
2019-06-26T21:11:11.241Z,22.40
2019-06-26T21:13:59.277Z,22.40
2019-06-26T21:16:47.679Z,22.40
2019-06-26T21:19:36.475Z,22.30
2019-06-26T21:22:25.180Z,22.20
2019-06-26T21:25:19.015Z,22.20
2019-06-26T21:28:03.390Z,22.10
2019-06-26T21:30:52.140Z,22.00
2019-06-26T21:33:40.208Z,22.00
2019-06-26T21:36:28.691Z,21.80
2019-06-26T21:39:16.605Z,21.80
2019-06-26T21:42:04.675Z,21.70
2019-06-26T21:44:52.467Z,21.60
2019-06-26T21:47:41.549Z,21.60
2019-06-26T21:50:29.831Z,21.50
2019-06-26T21:53:18.391Z,21.40
2019-06-26T21:56:08.278Z,21.30
2019-06-26T21:58:56.356Z,21.20
2019-06-26T22:01:46.071Z,21.10
2019-06-26T22:04:34.250Z,21.00
2019-06-26T22:07:22.426Z,21.10
2019-06-26T22:10:12.091Z,20.90
2019-06-26T22:13:00.254Z,20.90
2019-06-26T22:15:48.562Z,20.70
2019-06-26T22:18:37.022Z,20.60
2019-06-26T22:21:25.827Z,20.50
2019-06-26T22:24:14.582Z,20.40
2019-06-26T22:27:02.945Z,20.40
2019-06-26T22:29:51.598Z,20.30
2019-06-26T22:32:39.595Z,20.30
2019-06-26T22:35:27.520Z,20.30
2019-06-26T22:38:15.470Z,20.20
2019-06-26T22:41:03.337Z,20.10
2019-06-26T22:43:50.987Z,20.00
2019-06-26T22:46:40.332Z,20.00
2019-06-26T22:49:29.061Z,19.90
2019-06-26T22:52:17.499Z,19.80
2019-06-26T22:55:05.854Z,19.80
2019-06-26T22:57:54.297Z,19.80
2019-06-26T23:00:42.901Z,19.60
2019-06-26T23:03:31.225Z,19.50
2019-06-26T23:06:19.908Z,19.40
2019-06-26T23:09:07.947Z,19.40
2019-06-26T23:11:56.467Z,19.20
2019-06-26T23:14:45.050Z,19.10
2019-06-26T23:17:33.531Z,19.00
2019-06-26T23:20:22.203Z,18.80
2019-06-26T23:23:10.926Z,18.80
2019-06-26T23:25:58.983Z,18.70
2019-06-26T23:28:47.254Z,18.70
2019-06-26T23:31:35.564Z,18.80
2019-06-26T23:34:23.538Z,18.70
2019-06-26T23:37:11.919Z,18.70
2019-06-26T23:40:00.227Z,18.50
2019-06-26T23:42:48.869Z,18.30
2019-06-26T23:45:36.569Z,18.20
2019-06-26T23:48:24.807Z,18.30
2019-06-26T23:51:13.023Z,18.30
2019-06-26T23:54:01.973Z,18.20
2019-06-26T23:56:50.551Z,18.10
2019-06-26T23:59:39.059Z,18.10
